sensor_id;sensor_type;location;lat;lon;timestamp;P1;durP1;ratioP1;P2;durP2;ratioP2
15913;SDS011;8055;51.930;8.840;2022-12-07T00:03:42;36.83;;;23.15;;
15913;SDS011;8055;51.930;8.840;2022-12-07T00:06:11;31.20;;;20.00;;
15913;SDS011;8055;51.930;8.840;2022-12-07T00:08:38;33.00;;;19.80;;
15913;SDS011;8055;51.930;8.840;2022-12-07T00:11:04;35.63;;;21.45;;
15913;SDS011;8055;51.930;8.840;2022-12-07T00:13:35;37.55;;;22.25;;
15913;SDS011;8055;51.930;8.840;2022-12-07T00:16:02;38.35;;;23.02;;
15913;SDS011;8055;51.930;8.840;2022-12-07T00:18:32;39.55;;;23.88;;
15913;SDS011;8055;51.930;8.840;2022-12-07T00:21:05;39.28;;;24.40;;
15913;SDS011;8055;51.930;8.840;2022-12-07T00:23:33;46.55;;;26.60;;
15913;SDS011;8055;51.930;8.840;2022-12-07T00:26:12;50.60;;;28.50;;
15913;SDS011;8055;51.930;8.840;2022-12-07T00:28:40;57.95;;;29.02;;
15913;SDS011;8055;51.930;8.840;2022-12-07T00:31:07;56.00;;;29.27;;
15913;SDS011;8055;51.930;8.840;2022-12-07T00:33:34;61.58;;;31.60;;
15913;SDS011;8055;51.930;8.840;2022-12-07T00:36:01;56.85;;;30.42;;
15913;SDS011;8055;51.930;8.840;2022-12-07T00:38:28;59.63;;;31.70;;
15913;SDS011;8055;51.930;8.840;2022-12-07T00:40:55;54.40;;;31.33;;
15913;SDS011;8055;51.930;8.840;2022-12-07T00:43:25;68.15;;;32.70;;
15913;SDS011;8055;51.930;8.840;2022-12-07T00:45:51;58.92;;;31.73;;
15913;SDS011;8055;51.930;8.840;2022-12-07T00:48:16;58.67;;;32.13;;
15913;SDS011;8055;51.930;8.840;2022-12-07T00:50:42;74.32;;;31.40;;
15913;SDS011;8055;51.930;8.840;2022-12-07T00:53:07;64.50;;;33.67;;
15913;SDS011;8055;51.930;8.840;2022-12-07T00:55:33;69.22;;;32.63;;
15913;SDS011;8055;51.930;8.840;2022-12-07T00:58:01;70.70;;;33.78;;
15913;SDS011;8055;51.930;8.840;2022-12-07T01:00:27;95.32;;;35.80;;
15913;SDS011;8055;51.930;8.840;2022-12-07T01:02:53;72.22;;;35.75;;
15913;SDS011;8055;51.930;8.840;2022-12-07T01:05:18;80.15;;;35.13;;
15913;SDS011;8055;51.930;8.840;2022-12-07T01:07:44;109.57;;;36.67;;
15913;SDS011;8055;51.930;8.840;2022-12-07T01:10:09;89.38;;;34.42;;
15913;SDS011;8055;51.930;8.840;2022-12-07T01:12:35;78.03;;;35.80;;
15913;SDS011;8055;51.930;8.840;2022-12-07T01:15:00;71.03;;;35.95;;
15913;SDS011;8055;51.930;8.840;2022-12-07T01:17:26;71.47;;;36.75;;
15913;SDS011;8055;51.930;8.840;2022-12-07T01:19:51;70.28;;;35.67;;
15913;SDS011;8055;51.930;8.840;2022-12-07T01:22:16;73.30;;;35.92;;
15913;SDS011;8055;51.930;8.840;2022-12-07T01:24:42;72.22;;;34.95;;
15913;SDS011;8055;51.930;8.840;2022-12-07T01:27:07;63.65;;;33.53;;
15913;SDS011;8055;51.930;8.840;2022-12-07T01:29:32;68.82;;;34.45;;
15913;SDS011;8055;51.930;8.840;2022-12-07T01:31:58;65.60;;;34.10;;
15913;SDS011;8055;51.930;8.840;2022-12-07T01:34:23;63.72;;;33.83;;
15913;SDS011;8055;51.930;8.840;2022-12-07T01:36:49;59.83;;;32.08;;
15913;SDS011;8055;51.930;8.840;2022-12-07T01:39:14;59.75;;;31.15;;
15913;SDS011;8055;51.930;8.840;2022-12-07T01:41:40;59.92;;;31.90;;
15913;SDS011;8055;51.930;8.840;2022-12-07T01:44:18;56.83;;;29.67;;
15913;SDS011;8055;51.930;8.840;2022-12-07T01:46:52;59.10;;;32.42;;
15913;SDS011;8055;51.930;8.840;2022-12-07T01:49:40;56.90;;;30.63;;
15913;SDS011;8055;51.930;8.840;2022-12-07T01:52:17;55.22;;;30.35;;
15913;SDS011;8055;51.930;8.840;2022-12-07T01:54:43;53.00;;;28.27;;
15913;SDS011;8055;51.930;8.840;2022-12-07T01:57:11;56.80;;;28.17;;
15913;SDS011;8055;51.930;8.840;2022-12-07T01:59:38;52.67;;;27.83;;
15913;SDS011;8055;51.930;8.840;2022-12-07T02:02:05;49.08;;;26.20;;
15913;SDS011;8055;51.930;8.840;2022-12-07T02:04:36;44.95;;;25.67;;
15913;SDS011;8055;51.930;8.840;2022-12-07T02:07:01;51.55;;;26.70;;
15913;SDS011;8055;51.930;8.840;2022-12-07T02:09:29;51.78;;;27.35;;
15913;SDS011;8055;51.930;8.840;2022-12-07T02:11:55;57.33;;;30.40;;
15913;SDS011;8055;51.930;8.840;2022-12-07T02:14:21;58.20;;;30.85;;
15913;SDS011;8055;51.930;8.840;2022-12-07T02:16:57;55.55;;;29.48;;
15913;SDS011;8055;51.930;8.840;2022-12-07T02:19:48;57.95;;;30.17;;
15913;SDS011;8055;51.930;8.840;2022-12-07T02:30:54;49.55;;;27.08;;
15913;SDS011;8055;51.930;8.840;2022-12-07T02:33:36;50.70;;;28.17;;
15913;SDS011;8055;51.930;8.840;2022-12-07T02:36:21;48.95;;;26.13;;
15913;SDS011;8055;51.930;8.840;2022-12-07T02:41:22;44.80;;;24.83;;
15913;SDS011;8055;51.930;8.840;2022-12-07T02:43:54;43.45;;;23.88;;
15913;SDS011;8055;51.930;8.840;2022-12-07T02:46:23;42.05;;;23.52;;
15913;SDS011;8055;51.930;8.840;2022-12-07T02:48:53;38.28;;;22.45;;
15913;SDS011;8055;51.930;8.840;2022-12-07T02:51:21;44.05;;;23.50;;
15913;SDS011;8055;51.930;8.840;2022-12-07T02:53:47;41.47;;;22.85;;
15913;SDS011;8055;51.930;8.840;2022-12-07T02:56:34;46.08;;;22.85;;
15913;SDS011;8055;51.930;8.840;2022-12-07T03:05:07;34.45;;;19.02;;
15913;SDS011;8055;51.930;8.840;2022-12-07T03:21:31;33.15;;;17.17;;
15913;SDS011;8055;51.930;8.840;2022-12-07T03:24:01;31.52;;;17.08;;
15913;SDS011;8055;51.930;8.840;2022-12-07T03:29:05;29.00;;;15.75;;
15913;SDS011;8055;51.930;8.840;2022-12-07T03:31:36;28.50;;;14.73;;
15913;SDS011;8055;51.930;8.840;2022-12-07T03:34:07;26.97;;;14.10;;
15913;SDS011;8055;51.930;8.840;2022-12-07T03:37:01;28.10;;;13.25;;
15913;SDS011;8055;51.930;8.840;2022-12-07T03:39:33;25.03;;;12.47;;
15913;SDS011;8055;51.930;8.840;2022-12-07T03:42:05;27.95;;;13.52;;
15913;SDS011;8055;51.930;8.840;2022-12-07T03:44:33;22.90;;;13.35;;
15913;SDS011;8055;51.930;8.840;2022-12-07T03:49:39;24.98;;;13.43;;
15913;SDS011;8055;51.930;8.840;2022-12-07T03:57:47;25.35;;;13.10;;
15913;SDS011;8055;51.930;8.840;2022-12-07T04:00:16;25.67;;;12.63;;
15913;SDS011;8055;51.930;8.840;2022-12-07T04:02:43;22.65;;;12.63;;
15913;SDS011;8055;51.930;8.840;2022-12-07T04:05:09;22.48;;;12.63;;
15913;SDS011;8055;51.930;8.840;2022-12-07T04:07:35;29.63;;;13.05;;
15913;SDS011;8055;51.930;8.840;2022-12-07T04:10:00;25.23;;;12.80;;
15913;SDS011;8055;51.930;8.840;2022-12-07T04:12:26;18.85;;;11.35;;
15913;SDS011;8055;51.930;8.840;2022-12-07T04:14:51;24.98;;;11.57;;
15913;SDS011;8055;51.930;8.840;2022-12-07T04:17:16;20.63;;;11.52;;
15913;SDS011;8055;51.930;8.840;2022-12-07T04:19:42;24.15;;;11.70;;
15913;SDS011;8055;51.930;8.840;2022-12-07T04:22:07;19.92;;;11.18;;
15913;SDS011;8055;51.930;8.840;2022-12-07T04:24:33;24.20;;;12.43;;
15913;SDS011;8055;51.930;8.840;2022-12-07T04:26:59;22.25;;;12.65;;
15913;SDS011;8055;51.930;8.840;2022-12-07T04:29:25;24.70;;;11.80;;
15913;SDS011;8055;51.930;8.840;2022-12-07T04:31:51;24.05;;;12.70;;
15913;SDS011;8055;51.930;8.840;2022-12-07T04:34:17;24.77;;;12.15;;
15913;SDS011;8055;51.930;8.840;2022-12-07T04:36:43;23.10;;;11.10;;
15913;SDS011;8055;51.930;8.840;2022-12-07T04:39:28;23.05;;;11.27;;
15913;SDS011;8055;51.930;8.840;2022-12-07T04:41:55;25.02;;;11.10;;
15913;SDS011;8055;51.930;8.840;2022-12-07T04:44:22;21.95;;;10.73;;
15913;SDS011;8055;51.930;8.840;2022-12-07T04:46:49;18.90;;;10.07;;
15913;SDS011;8055;51.930;8.840;2022-12-07T04:49:15;19.67;;;11.85;;
15913;SDS011;8055;51.930;8.840;2022-12-07T04:51:41;22.70;;;12.50;;
15913;SDS011;8055;51.930;8.840;2022-12-07T04:54:08;25.50;;;11.30;;
15913;SDS011;8055;51.930;8.840;2022-12-07T04:56:33;21.95;;;10.43;;
15913;SDS011;8055;51.930;8.840;2022-12-07T04:59:00;22.17;;;10.45;;
15913;SDS011;8055;51.930;8.840;2022-12-07T05:01:25;22.88;;;10.68;;
15913;SDS011;8055;51.930;8.840;2022-12-07T05:03:51;16.38;;;10.32;;
15913;SDS011;8055;51.930;8.840;2022-12-07T05:06:16;22.70;;;11.80;;
15913;SDS011;8055;51.930;8.840;2022-12-07T05:08:42;24.00;;;11.02;;
15913;SDS011;8055;51.930;8.840;2022-12-07T05:11:08;20.92;;;11.35;;
15913;SDS011;8055;51.930;8.840;2022-12-07T05:13:35;23.00;;;11.40;;
15913;SDS011;8055;51.930;8.840;2022-12-07T05:16:01;22.58;;;10.48;;
15913;SDS011;8055;51.930;8.840;2022-12-07T05:18:27;20.30;;;10.63;;
15913;SDS011;8055;51.930;8.840;2022-12-07T05:20:52;17.90;;;9.27;;
15913;SDS011;8055;51.930;8.840;2022-12-07T05:23:18;20.40;;;10.15;;
15913;SDS011;8055;51.930;8.840;2022-12-07T05:25:43;19.95;;;9.75;;
15913;SDS011;8055;51.930;8.840;2022-12-07T05:28:09;17.73;;;10.07;;
15913;SDS011;8055;51.930;8.840;2022-12-07T05:30:35;18.92;;;9.70;;
15913;SDS011;8055;51.930;8.840;2022-12-07T05:33:00;19.08;;;10.15;;
15913;SDS011;8055;51.930;8.840;2022-12-07T05:35:25;24.73;;;10.27;;
15913;SDS011;8055;51.930;8.840;2022-12-07T05:37:51;19.45;;;9.48;;
15913;SDS011;8055;51.930;8.840;2022-12-07T05:40:16;18.35;;;9.88;;
15913;SDS011;8055;51.930;8.840;2022-12-07T05:42:43;18.58;;;8.95;;
15913;SDS011;8055;51.930;8.840;2022-12-07T05:45:09;17.02;;;10.00;;
15913;SDS011;8055;51.930;8.840;2022-12-07T05:47:35;21.65;;;9.65;;
15913;SDS011;8055;51.930;8.840;2022-12-07T05:50:00;18.65;;;9.93;;
15913;SDS011;8055;51.930;8.840;2022-12-07T05:52:26;16.23;;;9.00;;
15913;SDS011;8055;51.930;8.840;2022-12-07T05:54:52;21.45;;;9.70;;
15913;SDS011;8055;51.930;8.840;2022-12-07T05:57:17;15.73;;;9.40;;
15913;SDS011;8055;51.930;8.840;2022-12-07T05:59:43;21.40;;;9.43;;
15913;SDS011;8055;51.930;8.840;2022-12-07T06:02:09;17.70;;;8.55;;
15913;SDS011;8055;51.930;8.840;2022-12-07T06:04:37;13.73;;;8.27;;
15913;SDS011;8055;51.930;8.840;2022-12-07T06:07:05;18.98;;;8.75;;
15913;SDS011;8055;51.930;8.840;2022-12-07T06:09:30;17.75;;;8.98;;
15913;SDS011;8055;51.930;8.840;2022-12-07T06:11:57;19.65;;;8.15;;
15913;SDS011;8055;51.930;8.840;2022-12-07T06:14:48;19.55;;;8.27;;
15913;SDS011;8055;51.930;8.840;2022-12-07T06:17:14;18.50;;;8.98;;
15913;SDS011;8055;51.930;8.840;2022-12-07T06:19:40;18.50;;;8.70;;
15913;SDS011;8055;51.930;8.840;2022-12-07T06:22:06;15.23;;;8.38;;
15913;SDS011;8055;51.930;8.840;2022-12-07T06:24:32;15.82;;;8.13;;
15913;SDS011;8055;51.930;8.840;2022-12-07T06:26:58;16.05;;;8.02;;
15913;SDS011;8055;51.930;8.840;2022-12-07T06:29:24;14.32;;;9.00;;
15913;SDS011;8055;51.930;8.840;2022-12-07T06:31:49;22.13;;;8.85;;
15913;SDS011;8055;51.930;8.840;2022-12-07T06:34:16;20.17;;;8.30;;
15913;SDS011;8055;51.930;8.840;2022-12-07T06:36:43;15.90;;;8.50;;
15913;SDS011;8055;51.930;8.840;2022-12-07T06:39:09;22.13;;;9.88;;
15913;SDS011;8055;51.930;8.840;2022-12-07T06:41:38;18.48;;;8.85;;
15913;SDS011;8055;51.930;8.840;2022-12-07T06:44:04;20.88;;;9.85;;
15913;SDS011;8055;51.930;8.840;2022-12-07T06:46:30;18.50;;;9.13;;
15913;SDS011;8055;51.930;8.840;2022-12-07T06:48:56;20.80;;;9.80;;
15913;SDS011;8055;51.930;8.840;2022-12-07T06:51:21;20.83;;;10.07;;
15913;SDS011;8055;51.930;8.840;2022-12-07T06:53:47;20.95;;;10.18;;
15913;SDS011;8055;51.930;8.840;2022-12-07T06:56:12;23.67;;;9.18;;
15913;SDS011;8055;51.930;8.840;2022-12-07T06:58:38;17.50;;;8.63;;
15913;SDS011;8055;51.930;8.840;2022-12-07T07:01:08;17.92;;;9.70;;
15913;SDS011;8055;51.930;8.840;2022-12-07T07:03:34;19.42;;;9.23;;
15913;SDS011;8055;51.930;8.840;2022-12-07T07:05:59;23.92;;;9.40;;
15913;SDS011;8055;51.930;8.840;2022-12-07T07:08:25;25.65;;;9.75;;
15913;SDS011;8055;51.930;8.840;2022-12-07T07:10:50;25.10;;;10.02;;
15913;SDS011;8055;51.930;8.840;2022-12-07T07:13:15;17.42;;;9.65;;
15913;SDS011;8055;51.930;8.840;2022-12-07T07:15:41;18.98;;;9.85;;
15913;SDS011;8055;51.930;8.840;2022-12-07T07:18:06;16.08;;;9.60;;
15913;SDS011;8055;51.930;8.840;2022-12-07T07:20:32;23.15;;;9.43;;
15913;SDS011;8055;51.930;8.840;2022-12-07T07:22:57;57.88;;;27.48;;
15913;SDS011;8055;51.930;8.840;2022-12-07T07:25:23;26.52;;;10.98;;
15913;SDS011;8055;51.930;8.840;2022-12-07T07:27:48;22.02;;;10.52;;
15913;SDS011;8055;51.930;8.840;2022-12-07T07:30:13;20.42;;;12.45;;
15913;SDS011;8055;51.930;8.840;2022-12-07T07:32:39;18.98;;;9.43;;
15913;SDS011;8055;51.930;8.840;2022-12-07T07:35:05;18.70;;;10.48;;
15913;SDS011;8055;51.930;8.840;2022-12-07T07:37:30;20.38;;;10.07;;
15913;SDS011;8055;51.930;8.840;2022-12-07T07:39:56;18.00;;;10.52;;
15913;SDS011;8055;51.930;8.840;2022-12-07T07:42:21;19.77;;;10.93;;
15913;SDS011;8055;51.930;8.840;2022-12-07T07:44:47;19.95;;;10.73;;
15913;SDS011;8055;51.930;8.840;2022-12-07T07:47:12;23.05;;;8.85;;
15913;SDS011;8055;51.930;8.840;2022-12-07T07:49:38;14.70;;;8.38;;
15913;SDS011;8055;51.930;8.840;2022-12-07T07:52:04;17.08;;;7.68;;
15913;SDS011;8055;51.930;8.840;2022-12-07T07:54:30;20.25;;;9.20;;
15913;SDS011;8055;51.930;8.840;2022-12-07T07:56:56;16.17;;;7.97;;
15913;SDS011;8055;51.930;8.840;2022-12-07T07:59:21;18.23;;;8.50;;
15913;SDS011;8055;51.930;8.840;2022-12-07T08:01:47;21.08;;;8.93;;
15913;SDS011;8055;51.930;8.840;2022-12-07T08:04:12;16.38;;;9.60;;
15913;SDS011;8055;51.930;8.840;2022-12-07T08:06:37;24.00;;;12.80;;
15913;SDS011;8055;51.930;8.840;2022-12-07T08:09:03;24.52;;;13.43;;
15913;SDS011;8055;51.930;8.840;2022-12-07T08:11:30;23.13;;;11.80;;
15913;SDS011;8055;51.930;8.840;2022-12-07T08:13:56;39.05;;;22.05;;
15913;SDS011;8055;51.930;8.840;2022-12-07T08:16:21;24.80;;;18.55;;
15913;SDS011;8055;51.930;8.840;2022-12-07T08:18:47;15.95;;;8.85;;
15913;SDS011;8055;51.930;8.840;2022-12-07T08:21:13;20.15;;;9.13;;
15913;SDS011;8055;51.930;8.840;2022-12-07T08:23:40;21.48;;;9.02;;
15913;SDS011;8055;51.930;8.840;2022-12-07T08:26:07;19.42;;;8.43;;
15913;SDS011;8055;51.930;8.840;2022-12-07T08:28:35;14.40;;;7.72;;
15913;SDS011;8055;51.930;8.840;2022-12-07T08:31:05;11.57;;;7.07;;
15913;SDS011;8055;51.930;8.840;2022-12-07T08:33:32;18.98;;;7.78;;
15913;SDS011;8055;51.930;8.840;2022-12-07T08:36:00;14.65;;;7.53;;
15913;SDS011;8055;51.930;8.840;2022-12-07T08:38:29;13.38;;;6.50;;
15913;SDS011;8055;51.930;8.840;2022-12-07T08:40:55;16.35;;;6.45;;
15913;SDS011;8055;51.930;8.840;2022-12-07T08:43:23;14.95;;;6.68;;
15913;SDS011;8055;51.930;8.840;2022-12-07T08:45:51;19.63;;;6.88;;
15913;SDS011;8055;51.930;8.840;2022-12-07T08:48:28;13.05;;;6.75;;
15913;SDS011;8055;51.930;8.840;2022-12-07T08:50:54;17.38;;;7.78;;
15913;SDS011;8055;51.930;8.840;2022-12-07T08:53:19;19.70;;;13.10;;
15913;SDS011;8055;51.930;8.840;2022-12-07T08:55:45;16.27;;;9.90;;
15913;SDS011;8055;51.930;8.840;2022-12-07T08:58:11;22.42;;;13.30;;
15913;SDS011;8055;51.930;8.840;2022-12-07T09:00:37;17.98;;;9.57;;
15913;SDS011;8055;51.930;8.840;2022-12-07T09:03:02;18.95;;;9.40;;
15913;SDS011;8055;51.930;8.840;2022-12-07T09:05:28;14.73;;;7.50;;
15913;SDS011;8055;51.930;8.840;2022-12-07T09:07:54;19.10;;;7.18;;
15913;SDS011;8055;51.930;8.840;2022-12-07T09:10:24;13.70;;;6.30;;
15913;SDS011;8055;51.930;8.840;2022-12-07T09:12:50;14.63;;;7.45;;
15913;SDS011;8055;51.930;8.840;2022-12-07T09:15:16;28.48;;;16.52;;
15913;SDS011;8055;51.930;8.840;2022-12-07T09:17:41;35.83;;;21.90;;
15913;SDS011;8055;51.930;8.840;2022-12-07T09:20:07;14.52;;;7.18;;
15913;SDS011;8055;51.930;8.840;2022-12-07T09:22:32;21.67;;;7.57;;
15913;SDS011;8055;51.930;8.840;2022-12-07T09:24:58;20.45;;;7.85;;
15913;SDS011;8055;51.930;8.840;2022-12-07T09:27:25;17.73;;;8.38;;
15913;SDS011;8055;51.930;8.840;2022-12-07T09:29:51;20.52;;;8.75;;
15913;SDS011;8055;51.930;8.840;2022-12-07T09:32:16;17.20;;;8.63;;
15913;SDS011;8055;51.930;8.840;2022-12-07T09:34:42;17.67;;;8.25;;
15913;SDS011;8055;51.930;8.840;2022-12-07T09:37:07;19.55;;;9.02;;
15913;SDS011;8055;51.930;8.840;2022-12-07T09:39:33;15.00;;;8.35;;
15913;SDS011;8055;51.930;8.840;2022-12-07T09:41:58;19.55;;;8.75;;
15913;SDS011;8055;51.930;8.840;2022-12-07T09:44:27;30.83;;;14.85;;
15913;SDS011;8055;51.930;8.840;2022-12-07T09:46:53;22.00;;;9.00;;
15913;SDS011;8055;51.930;8.840;2022-12-07T09:49:21;53.50;;;44.00;;
15913;SDS011;8055;51.930;8.840;2022-12-07T09:51:59;15.55;;;8.70;;
15913;SDS011;8055;51.930;8.840;2022-12-07T09:54:26;17.30;;;9.20;;
15913;SDS011;8055;51.930;8.840;2022-12-07T09:56:51;13.38;;;7.35;;
15913;SDS011;8055;51.930;8.840;2022-12-07T09:59:18;19.52;;;8.73;;
15913;SDS011;8055;51.930;8.840;2022-12-07T10:01:44;16.98;;;7.68;;
15913;SDS011;8055;51.930;8.840;2022-12-07T10:04:22;12.43;;;6.95;;
15913;SDS011;8055;51.930;8.840;2022-12-07T10:06:50;13.90;;;6.95;;
15913;SDS011;8055;51.930;8.840;2022-12-07T10:09:17;23.20;;;7.70;;
15913;SDS011;8055;51.930;8.840;2022-12-07T10:14:25;14.02;;;6.70;;
15913;SDS011;8055;51.930;8.840;2022-12-07T10:16:53;16.30;;;7.38;;
15913;SDS011;8055;51.930;8.840;2022-12-07T10:19:29;15.05;;;6.18;;
15913;SDS011;8055;51.930;8.840;2022-12-07T10:22:30;15.70;;;6.15;;
15913;SDS011;8055;51.930;8.840;2022-12-07T10:24:48;16.52;;;7.65;;
15913;SDS011;8055;51.930;8.840;2022-12-07T10:29:47;15.32;;;6.10;;
15913;SDS011;8055;51.930;8.840;2022-12-07T10:34:40;14.80;;;6.20;;
15913;SDS011;8055;51.930;8.840;2022-12-07T10:39:43;12.95;;;6.40;;
15913;SDS011;8055;51.930;8.840;2022-12-07T10:42:20;10.15;;;5.50;;
15913;SDS011;8055;51.930;8.840;2022-12-07T10:53:34;12.15;;;5.72;;
15913;SDS011;8055;51.930;8.840;2022-12-07T11:01:48;19.58;;;6.57;;
15913;SDS011;8055;51.930;8.840;2022-12-07T11:27:04;16.38;;;5.40;;
15913;SDS011;8055;51.930;8.840;2022-12-07T11:29:26;13.05;;;5.03;;
15913;SDS011;8055;51.930;8.840;2022-12-07T11:34:39;9.18;;;5.18;;
15913;SDS011;8055;51.930;8.840;2022-12-07T11:37:24;14.80;;;5.47;;
15913;SDS011;8055;51.930;8.840;2022-12-07T11:39:55;11.52;;;5.72;;
15913;SDS011;8055;51.930;8.840;2022-12-07T11:42:26;9.57;;;4.93;;
15913;SDS011;8055;51.930;8.840;2022-12-07T11:50:54;11.65;;;5.78;;
15913;SDS011;8055;51.930;8.840;2022-12-07T11:55:54;24.90;;;6.07;;
15913;SDS011;8055;51.930;8.840;2022-12-07T12:03:40;16.30;;;4.88;;
15913;SDS011;8055;51.930;8.840;2022-12-07T12:06:09;18.08;;;6.00;;
15913;SDS011;8055;51.930;8.840;2022-12-07T12:08:45;13.68;;;7.88;;
15913;SDS011;8055;51.930;8.840;2022-12-07T12:17:16;13.30;;;5.07;;
15913;SDS011;8055;51.930;8.840;2022-12-07T12:22:37;14.55;;;4.22;;
15913;SDS011;8055;51.930;8.840;2022-12-07T12:25:06;11.38;;;4.25;;
15913;SDS011;8055;51.930;8.840;2022-12-07T12:27:38;10.90;;;3.83;;
15913;SDS011;8055;51.930;8.840;2022-12-07T12:30:06;9.63;;;3.83;;
15913;SDS011;8055;51.930;8.840;2022-12-07T12:32:48;11.07;;;3.75;;
15913;SDS011;8055;51.930;8.840;2022-12-07T12:35:56;7.65;;;3.50;;
15913;SDS011;8055;51.930;8.840;2022-12-07T12:40:52;10.07;;;4.53;;
15913;SDS011;8055;51.930;8.840;2022-12-07T12:51:42;11.15;;;3.33;;
15913;SDS011;8055;51.930;8.840;2022-12-07T12:59:57;6.70;;;2.22;;
15913;SDS011;8055;51.930;8.840;2022-12-07T13:05:02;21.92;;;10.90;;
15913;SDS011;8055;51.930;8.840;2022-12-07T13:26:23;11.63;;;3.92;;
15913;SDS011;8055;51.930;8.840;2022-12-07T13:31:35;14.77;;;3.80;;
15913;SDS011;8055;51.930;8.840;2022-12-07T13:37:01;9.15;;;3.25;;
15913;SDS011;8055;51.930;8.840;2022-12-07T13:39:35;15.45;;;4.15;;
15913;SDS011;8055;51.930;8.840;2022-12-07T13:44:45;9.77;;;3.80;;
15913;SDS011;8055;51.930;8.840;2022-12-07T13:47:28;10.13;;;3.60;;
15913;SDS011;8055;51.930;8.840;2022-12-07T13:50:00;9.20;;;3.58;;
15913;SDS011;8055;51.930;8.840;2022-12-07T13:52:30;10.20;;;2.95;;
15913;SDS011;8055;51.930;8.840;2022-12-07T13:57:21;7.85;;;2.50;;
15913;SDS011;8055;51.930;8.840;2022-12-07T13:59:49;8.57;;;3.00;;
15913;SDS011;8055;51.930;8.840;2022-12-07T14:02:22;9.18;;;2.47;;
15913;SDS011;8055;51.930;8.840;2022-12-07T14:04:51;16.20;;;4.90;;
15913;SDS011;8055;51.930;8.840;2022-12-07T14:07:18;6.07;;;2.00;;
15913;SDS011;8055;51.930;8.840;2022-12-07T14:09:53;10.25;;;2.75;;
15913;SDS011;8055;51.930;8.840;2022-12-07T14:12:19;9.60;;;2.38;;
15913;SDS011;8055;51.930;8.840;2022-12-07T14:14:48;14.50;;;5.15;;
15913;SDS011;8055;51.930;8.840;2022-12-07T14:17:20;13.43;;;4.40;;
15913;SDS011;8055;51.930;8.840;2022-12-07T14:20:27;8.63;;;4.53;;
15913;SDS011;8055;51.930;8.840;2022-12-07T14:22:55;30.52;;;8.18;;
15913;SDS011;8055;51.930;8.840;2022-12-07T14:25:24;11.13;;;3.78;;
15913;SDS011;8055;51.930;8.840;2022-12-07T14:27:56;11.95;;;2.67;;
15913;SDS011;8055;51.930;8.840;2022-12-07T14:30:30;16.42;;;3.75;;
15913;SDS011;8055;51.930;8.840;2022-12-07T14:33:04;9.60;;;3.53;;
15913;SDS011;8055;51.930;8.840;2022-12-07T14:35:31;12.10;;;3.50;;
15913;SDS011;8055;51.930;8.840;2022-12-07T14:37:57;15.00;;;3.50;;
15913;SDS011;8055;51.930;8.840;2022-12-07T14:40:26;15.50;;;3.90;;
15913;SDS011;8055;51.930;8.840;2022-12-07T14:43:12;9.25;;;3.05;;
15913;SDS011;8055;51.930;8.840;2022-12-07T14:45:41;15.43;;;4.03;;
15913;SDS011;8055;51.930;8.840;2022-12-07T14:48:07;13.43;;;4.28;;
15913;SDS011;8055;51.930;8.840;2022-12-07T14:50:39;12.05;;;4.35;;
15913;SDS011;8055;51.930;8.840;2022-12-07T14:53:15;12.00;;;4.40;;
15913;SDS011;8055;51.930;8.840;2022-12-07T14:55:42;10.68;;;3.97;;
15913;SDS011;8055;51.930;8.840;2022-12-07T14:58:14;12.50;;;4.90;;
15913;SDS011;8055;51.930;8.840;2022-12-07T15:00:41;9.88;;;4.47;;
15913;SDS011;8055;51.930;8.840;2022-12-07T15:03:06;11.68;;;5.93;;
15913;SDS011;8055;51.930;8.840;2022-12-07T15:05:32;18.00;;;5.35;;
15913;SDS011;8055;51.930;8.840;2022-12-07T15:07:58;11.98;;;5.78;;
15913;SDS011;8055;51.930;8.840;2022-12-07T15:10:25;16.95;;;5.65;;
15913;SDS011;8055;51.930;8.840;2022-12-07T15:12:55;16.27;;;7.03;;
15913;SDS011;8055;51.930;8.840;2022-12-07T15:15:41;14.95;;;6.22;;
15913;SDS011;8055;51.930;8.840;2022-12-07T15:18:06;15.75;;;5.20;;
15913;SDS011;8055;51.930;8.840;2022-12-07T15:20:32;14.40;;;5.93;;
15913;SDS011;8055;51.930;8.840;2022-12-07T15:22:58;14.73;;;6.03;;
15913;SDS011;8055;51.930;8.840;2022-12-07T15:25:23;14.40;;;5.70;;
15913;SDS011;8055;51.930;8.840;2022-12-07T15:27:49;12.23;;;5.28;;
15913;SDS011;8055;51.930;8.840;2022-12-07T15:30:15;15.40;;;5.50;;
15913;SDS011;8055;51.930;8.840;2022-12-07T15:32:40;13.95;;;5.13;;
15913;SDS011;8055;51.930;8.840;2022-12-07T15:35:06;14.23;;;6.05;;
15913;SDS011;8055;51.930;8.840;2022-12-07T15:37:31;14.75;;;6.05;;
15913;SDS011;8055;51.930;8.840;2022-12-07T15:39:57;16.13;;;6.80;;
15913;SDS011;8055;51.930;8.840;2022-12-07T15:42:22;13.43;;;6.65;;
15913;SDS011;8055;51.930;8.840;2022-12-07T15:44:47;50.92;;;21.58;;
15913;SDS011;8055;51.930;8.840;2022-12-07T15:47:29;14.90;;;7.95;;
15913;SDS011;8055;51.930;8.840;2022-12-07T15:49:59;33.42;;;14.02;;
15913;SDS011;8055;51.930;8.840;2022-12-07T15:52:25;30.88;;;14.00;;
15913;SDS011;8055;51.930;8.840;2022-12-07T15:54:50;28.55;;;8.93;;
15913;SDS011;8055;51.930;8.840;2022-12-07T15:57:16;23.90;;;11.45;;
15913;SDS011;8055;51.930;8.840;2022-12-07T15:59:41;23.42;;;10.20;;
15913;SDS011;8055;51.930;8.840;2022-12-07T16:02:07;18.08;;;9.18;;
15913;SDS011;8055;51.930;8.840;2022-12-07T16:04:35;14.68;;;6.60;;
15913;SDS011;8055;51.930;8.840;2022-12-07T16:07:01;19.85;;;6.72;;
15913;SDS011;8055;51.930;8.840;2022-12-07T16:09:26;10.90;;;6.22;;
15913;SDS011;8055;51.930;8.840;2022-12-07T16:11:51;14.38;;;6.10;;
15913;SDS011;8055;51.930;8.840;2022-12-07T16:14:17;15.32;;;5.53;;
15913;SDS011;8055;51.930;8.840;2022-12-07T16:16:42;16.88;;;6.88;;
15913;SDS011;8055;51.930;8.840;2022-12-07T16:19:08;20.83;;;6.15;;
15913;SDS011;8055;51.930;8.840;2022-12-07T16:21:34;14.85;;;6.25;;
15913;SDS011;8055;51.930;8.840;2022-12-07T16:24:00;16.40;;;6.63;;
15913;SDS011;8055;51.930;8.840;2022-12-07T16:26:26;16.23;;;6.85;;
15913;SDS011;8055;51.930;8.840;2022-12-07T16:28:52;18.67;;;6.85;;
15913;SDS011;8055;51.930;8.840;2022-12-07T16:31:21;17.25;;;7.00;;
15913;SDS011;8055;51.930;8.840;2022-12-07T16:33:48;18.25;;;6.97;;
15913;SDS011;8055;51.930;8.840;2022-12-07T16:36:14;33.15;;;16.20;;
15913;SDS011;8055;51.930;8.840;2022-12-07T16:38:41;22.98;;;7.82;;
15913;SDS011;8055;51.930;8.840;2022-12-07T16:41:07;24.35;;;8.52;;
15913;SDS011;8055;51.930;8.840;2022-12-07T16:43:33;17.33;;;6.78;;
15913;SDS011;8055;51.930;8.840;2022-12-07T16:46:00;20.83;;;7.90;;
15913;SDS011;8055;51.930;8.840;2022-12-07T16:48:26;14.45;;;5.68;;
15913;SDS011;8055;51.930;8.840;2022-12-07T16:50:51;10.18;;;2.75;;
15913;SDS011;8055;51.930;8.840;2022-12-07T16:53:19;6.45;;;2.42;;
15913;SDS011;8055;51.930;8.840;2022-12-07T16:55:45;5.30;;;2.72;;
15913;SDS011;8055;51.930;8.840;2022-12-07T16:58:14;5.40;;;2.03;;
15913;SDS011;8055;51.930;8.840;2022-12-07T17:00:41;6.22;;;2.30;;
15913;SDS011;8055;51.930;8.840;2022-12-07T17:03:07;5.75;;;2.10;;
15913;SDS011;8055;51.930;8.840;2022-12-07T17:05:36;5.43;;;2.88;;
15913;SDS011;8055;51.930;8.840;2022-12-07T17:08:03;4.97;;;2.95;;
15913;SDS011;8055;51.930;8.840;2022-12-07T17:10:28;6.95;;;3.10;;
15913;SDS011;8055;51.930;8.840;2022-12-07T17:12:54;10.90;;;6.97;;
15913;SDS011;8055;51.930;8.840;2022-12-07T17:15:19;7.63;;;5.97;;
15913;SDS011;8055;51.930;8.840;2022-12-07T17:17:51;7.53;;;5.22;;
15913;SDS011;8055;51.930;8.840;2022-12-07T17:20:20;6.38;;;3.90;;
15913;SDS011;8055;51.930;8.840;2022-12-07T17:22:47;10.82;;;5.22;;
15913;SDS011;8055;51.930;8.840;2022-12-07T17:25:13;9.02;;;5.43;;
15913;SDS011;8055;51.930;8.840;2022-12-07T17:27:38;12.43;;;7.57;;
15913;SDS011;8055;51.930;8.840;2022-12-07T17:30:04;13.82;;;8.60;;
15913;SDS011;8055;51.930;8.840;2022-12-07T17:32:31;19.13;;;10.10;;
15913;SDS011;8055;51.930;8.840;2022-12-07T17:34:56;15.77;;;8.63;;